Groves, Texas
Current Conditions -  °F | °C
As of 11:53 AM on Tuesday 21 Oct 2014 (Local Time) from KBPT Reporting Station
Clear Clear  
Wind Chill: 77°   Ceiling: Unl
Heat Index: 78°   Visibility: 10mi
Dew Point: 55°   Wind: 13mph
Humidity: 46%   Direction: 60°ENE
Pressure: 30.06"   Gusts: NA
Location:  29.95°N, 93.92°W
Report Text: KBPT 211653Z 06011KT 10SM CLR 25/13 A3006 RMK AO2 SLP180 T02500128 $
Loading
Personal Weather Stations






























Interactive Weather Map
Tropical Storm Tracking
New forecast layout! Learn more

10-Day Weather Forecast

Advertisements
Track Severe Weather on mobile